»·PEaware :: N21LG KABQ-KAMA

N21LG :: KABQ-KAMA

FLIGHT INFORMATION

Flight Status: Arrived
Operator: Privately registered:
United States
More flights under this callsign
Pilot: Anonymous 3903 (3903)
Aircraft: CESSNA 550 CITATION 2/S2/BRAVO
(C550)
More flights by this aircraft type
Origin: KABQ Albuquerque Intl Sunport
United States
Destination: KAMA Amarillo Intl
United States
More flights between these airports :: More routes between these airports
Route: +ABQ2 J6 PNH
File this flight plan on PilotEdge
Remarks:
Altitude:
(Current/Filed)
25,000ft
Speed:
(Current/Filed)
400kts
Departed: 13-Aug-17 09:06 AM
Arrived: 13-Aug-17 09:59 AM
Distance/Time
Traveled:
241nm/0:53
Distance/Time
To Go:
Arrived

Flight Plot

Page will automatically refresh every two minutes.

Flight plan parsing failed; only flown route is shown


Map Options




Map Legend


Flown Route
Filed Route
Departure Airport
Arrival Airport
Navaid (VOR, NDB)
Fix

Horizontal Profiles

Position Reports

Time Latitude Longitude Heading Altitude Ground
Speed
13-Aug-17 08:55 35.035030 -106.619420 1 5315ft 0kts
13-Aug-17 08:56 35.035032 -106.619420 1 5315ft 0kts
13-Aug-17 08:57 35.035034 -106.619419 1 5315ft 0kts
13-Aug-17 08:58 35.035036 -106.619419 1 5315ft 0kts
13-Aug-17 08:59 35.035038 -106.619419 1 5315ft 0kts
13-Aug-17 09:00 35.035039 -106.619419 1 5315ft 0kts
13-Aug-17 09:01 35.035041 -106.619419 1 5315ft 0kts
13-Aug-17 09:02 35.034827 -106.618319 133 5315ft 0kts
13-Aug-17 09:03 35.035159 -106.617057 44 5315ft 14kts
13-Aug-17 09:04 35.037395 -106.614347 45 5315ft 11kts
13-Aug-17 09:05 35.042118 -106.613568 3 5315ft 11kts
13-Aug-17 09:06 35.042457 -106.612789 90 5315ft 0kts
13-Aug-17 09:07 35.042328 -106.607860 156 5315ft 6kts
13-Aug-17 09:08 35.041155 -106.607779 223 5315ft 0kts
13-Aug-17 09:09 35.024895 -106.627501 226 5681ft 140kts
13-Aug-17 09:10 34.996720 -106.671334 235 7838ft 184kts
13-Aug-17 09:11 34.950112 -106.693277 148 10185ft 260kts
13-Aug-17 09:12 34.944905 -106.606498 66 12861ft 301kts
13-Aug-17 09:13 34.980049 -106.507798 64 15126ft 343kts
13-Aug-17 09:14 35.012618 -106.403562 65 18584ft 331kts
13-Aug-17 09:15 35.050763 -106.297967 66 20979ft 346kts
13-Aug-17 09:16 35.078479 -106.185958 86 23349ft 348kts
13-Aug-17 09:17 35.083673 -106.066995 86 25136ft 349kts
13-Aug-17 09:18 35.089673 -105.943095 86 25292ft 384kts
13-Aug-17 09:19 35.095882 -105.812803 86 25299ft 384kts
13-Aug-17 09:20 35.101678 -105.692190 86 25295ft 297kts
13-Aug-17 09:21 35.105272 -105.604547 87 25304ft 243kts
13-Aug-17 09:22 35.109852 -105.513717 86 25325ft 301kts
13-Aug-17 09:23 35.115228 -105.396746 86 25302ft 375kts
13-Aug-17 09:24 35.121053 -105.264249 86 25300ft 401kts
13-Aug-17 09:25 35.126919 -105.125913 86 25292ft 411kts
13-Aug-17 09:26 35.132727 -104.986379 86 25269ft 410kts
13-Aug-17 09:27 35.138350 -104.847941 86 25255ft 407kts
13-Aug-17 09:28 35.143811 -104.709559 87 25239ft 407kts
13-Aug-17 09:29 35.149092 -104.571722 87 25220ft 407kts
13-Aug-17 09:30 35.154235 -104.433326 87 25197ft 407kts
13-Aug-17 09:31 35.159204 -104.295381 87 25172ft 407kts
13-Aug-17 09:32 35.164472 -104.157360 82 25147ft 407kts
13-Aug-17 09:33 35.179542 -104.022507 97 25128ft 406kts
13-Aug-17 09:34 35.173764 -103.884381 89 25108ft 408kts
13-Aug-17 09:35 35.177299 -103.745672 87 25091ft 409kts
13-Aug-17 09:36 35.181635 -103.606407 87 25086ft 409kts
13-Aug-17 09:37 35.186475 -103.467682 87 25087ft 409kts
13-Aug-17 09:38 35.191221 -103.328595 87 25093ft 408kts
13-Aug-17 09:39 35.195772 -103.190214 87 25102ft 407kts
13-Aug-17 09:40 35.200145 -103.052307 87 24802ft 398kts
13-Aug-17 09:41 35.204176 -102.921208 87 23313ft 382kts
13-Aug-17 09:42 35.207988 -102.791640 87 21817ft 381kts
13-Aug-17 09:43 35.211634 -102.663030 87 20325ft 376kts
13-Aug-17 09:44 35.215100 -102.535813 87 18828ft 370kts
13-Aug-17 09:45 35.218299 -102.413484 87 17341ft 351kts
13-Aug-17 09:46 35.221414 -102.295483 87 15838ft 344kts
13-Aug-17 09:47 35.256103 -102.191022 63 14346ft 327kts
13-Aug-17 09:49 35.291402 -102.090189 66 13048ft 320kts
13-Aug-17 09:50 35.325115 -101.989638 66 11742ft 316kts
13-Aug-17 09:51 35.357963 -101.890991 67 10444ft 308kts
13-Aug-17 09:52 35.389670 -101.795498 68 9008ft 293kts
13-Aug-17 09:53 35.416258 -101.715329 68 7391ft 228kts
13-Aug-17 09:54 35.439772 -101.643886 69 6047ft 217kts
13-Aug-17 09:55 35.450824 -101.576505 114 5981ft 204kts
13-Aug-17 09:56 35.407692 -101.533424 152 5422ft 201kts
13-Aug-17 09:57 35.360568 -101.499235 158 5379ft 195kts
13-Aug-17 09:58 35.316071 -101.518781 238 5385ft 175kts
13-Aug-17 09:59 35.293095 -101.568424 239 5389ft 163kts
13-Aug-17 10:00 35.274106 -101.610493 238 5366ft 133kts
13-Aug-17 10:01 35.257410 -101.649447 239 4589ft 121kts
13-Aug-17 10:02 35.241788 -101.685678 230 3948ft 111kts
13-Aug-17 10:03 35.225053 -101.707594 226 3610ft 23kts
13-Aug-17 10:04 35.223691 -101.707419 134 3610ft 0kts
13-Aug-17 10:05 35.221211 -101.705552 137 3610ft 3kts
13-Aug-17 10:06 35.221206 -101.705547 137 3610ft 0kts
13-Aug-17 10:07 35.221206 -101.705547 137 3610ft 0kts
13-Aug-17 10:08 35.221206 -101.705547 137 3610ft 0kts
13-Aug-17 10:09 35.221206 -101.705547 137 3610ft 0kts
13-Aug-17 10:10 35.221206 -101.705547 137 3610ft 0kts
13-Aug-17 10:11 35.221206 -101.705547 137 3610ft 0kts
13-Aug-17 10:12 35.221206 -101.705547 137 3610ft 0kts
13-Aug-17 10:13 35.221206 -101.705547 137 3610ft 0kts
13-Aug-17 10:14 35.221206 -101.705547 137 3610ft 0kts
13-Aug-17 10:15 35.221206 -101.705547 137 3610ft 0kts
13-Aug-17 10:16 35.221206 -101.705547 137 3610ft 0kts
13-Aug-17 10:17 35.221206 -101.705547 137 3610ft 0kts

Navigation Log

Ident Type
Flight plan parsing failed, navigation log unavailable